createdAt,value
2019-02-11T00:01:00.634Z,19.14
2019-02-11T00:06:55.607Z,28.11
2019-02-11T00:12:50.566Z,22.18
2019-02-11T00:18:45.640Z,17.93
2019-02-11T00:24:40.608Z,21.19
2019-02-11T00:30:35.591Z,19.53
2019-02-11T00:36:30.595Z,13.63
2019-02-11T00:42:25.616Z,14.32
2019-02-11T00:48:20.641Z,12.83
2019-02-11T00:54:15.614Z,15.7
2019-02-11T01:00:10.639Z,18.25
2019-02-11T01:06:05.621Z,12.13
2019-02-11T01:12:00.700Z,16.73
2019-02-11T01:17:55.636Z,10.58
2019-02-11T01:23:50.615Z,16.6
2019-02-11T01:29:45.647Z,17.72
2019-02-11T01:35:40.720Z,9.93
2019-02-11T01:41:35.633Z,18.77
2019-02-11T01:47:30.655Z,10.77
2019-02-11T01:53:25.646Z,18.99
2019-02-11T01:59:20.659Z,19.21
2019-02-11T02:05:15.670Z,18.47
2019-02-11T02:11:10.660Z,17.04
2019-02-11T02:17:05.701Z,18.53
2019-02-11T02:23:00.678Z,14.31
2019-02-11T02:28:55.677Z,12.6
2019-02-11T02:34:50.735Z,20.22
2019-02-11T02:40:45.670Z,22.19
2019-02-11T02:46:40.675Z,19.44
2019-02-11T02:52:35.690Z,26.6
2019-02-11T02:58:30.707Z,23.64
2019-02-11T03:04:25.680Z,17.68
2019-02-11T03:10:20.716Z,14.36
2019-02-11T03:16:15.704Z,21.58
2019-02-11T03:22:10.699Z,13.67
2019-02-11T03:28:05.711Z,20.15
2019-02-11T03:34:00.738Z,15.07
2019-02-11T03:39:55.724Z,15.68
2019-02-11T03:45:50.723Z,17.12
2019-02-11T03:51:45.726Z,16.9
2019-02-11T03:57:40.737Z,14.79
2019-02-11T04:03:35.742Z,8.23
2019-02-11T04:09:30.759Z,13.87
2019-02-11T04:15:25.750Z,13.14
2019-02-11T04:21:20.762Z,13.34
2019-02-11T04:27:15.746Z,7.87
2019-02-11T04:33:10.754Z,12.72
2019-02-11T04:39:05.739Z,10.93
2019-02-11T04:45:00.805Z,9.86
2019-02-11T04:50:55.772Z,11.57
2019-02-11T04:56:50.767Z,9.86
2019-02-11T05:02:45.780Z,11.42
2019-02-11T05:08:40.756Z,22.95
2019-02-11T05:14:43.425Z,20.74
2019-02-11T05:20:30.834Z,22.93
2019-02-11T05:26:25.805Z,25.71
2019-02-11T09:23:06.270Z,22.36
2019-02-11T09:23:06.285Z,27.21
2019-02-11T09:23:06.285Z,27.21
2019-02-11T09:23:06.285Z,27.21
2019-02-11T09:23:06.301Z,27.21
2019-02-11T09:23:06.316Z,27.21
2019-02-11T09:23:06.316Z,27.21
2019-02-11T09:23:06.316Z,27.21
2019-02-11T09:23:06.316Z,27.21
2019-02-11T09:23:06.345Z,18.62
2019-02-11T09:23:06.367Z,18.62
2019-02-11T09:23:06.383Z,18.62
2019-02-11T09:23:06.394Z,18.62
2019-02-11T09:23:06.394Z,18.62
2019-02-11T09:23:06.419Z,18.62
2019-02-11T09:23:06.436Z,18.62
2019-02-11T09:23:06.462Z,18.62
2019-02-11T09:23:06.492Z,18.62
2019-02-11T09:23:06.527Z,18.62
2019-02-11T09:23:06.536Z,18.62
2019-02-11T09:23:06.579Z,18.62
2019-02-11T09:23:06.595Z,18.62
2019-02-11T09:23:06.638Z,18.62
2019-02-11T09:23:06.661Z,18.62
2019-02-11T09:23:06.725Z,18.62
2019-02-11T09:23:06.758Z,18.62
2019-02-11T09:23:06.773Z,18.62
2019-02-11T09:23:06.789Z,18.62
2019-02-11T09:23:06.841Z,18.62
2019-02-11T09:23:06.848Z,18.62
2019-02-11T09:23:06.893Z,18.62
2019-02-11T09:23:06.919Z,18.62
2019-02-11T09:23:06.931Z,18.62
2019-02-11T09:23:07.001Z,18.62
2019-02-11T09:23:07.010Z,18.62
2019-02-11T09:23:07.034Z,18.62
2019-02-11T09:23:07.058Z,18.62
2019-02-11T09:23:07.071Z,18.62
2019-02-11T09:23:07.107Z,18.62
2019-02-11T09:23:07.147Z,18.62
2019-02-11T09:29:00.940Z,15.23
2019-02-11T09:34:55.915Z,20.49
2019-02-11T09:40:50.914Z,22.6
2019-02-11T09:46:45.930Z,8.77
2019-02-11T09:52:40.936Z,24.83
2019-02-11T09:58:35.939Z,16.79
2019-02-11T10:04:30.936Z,9.68
2019-02-11T10:10:25.954Z,9.89
2019-02-11T10:16:22.245Z,7.79
2019-02-11T10:22:15.962Z,4.26
2019-02-11T10:28:10.963Z,10.06
2019-02-11T10:34:05.949Z,6.78
2019-02-11T10:40:00.959Z,6.17
2019-02-11T10:45:55.972Z,2.45
2019-02-11T10:51:50.960Z,3.04
2019-02-11T10:57:45.986Z,2.55
2019-02-11T11:03:40.990Z,2.03
2019-02-11T11:09:36.040Z,1.97
2019-02-11T11:15:30.971Z,0.95
2019-02-11T11:21:25.981Z,1.27
2019-02-11T11:27:20.988Z,2.32
2019-02-11T11:33:15.997Z,1.1
2019-02-11T11:39:11.021Z,1.34
2019-02-11T11:45:05.979Z,0.86
2019-02-11T11:51:01.002Z,0.61
2019-02-11T11:56:59.130Z,0.52
2019-02-11T12:03:01.320Z,1.01
2019-02-11T12:08:46.042Z,0.86
2019-02-11T12:14:41.627Z,1.83
2019-02-11T12:20:36.070Z,0.87
2019-02-11T12:26:31.078Z,0.57
2019-02-11T12:32:26.061Z,0.72
2019-02-11T12:38:21.089Z,1.07
2019-02-11T12:44:16.043Z,0.34
2019-02-11T12:50:11.036Z,0.83
2019-02-11T12:56:06.064Z,0.62
2019-02-11T13:02:01.055Z,0.49
2019-02-11T13:07:56.093Z,2.19
2019-02-11T13:13:51.057Z,0.37
2019-02-11T13:19:46.136Z,0.47
2019-02-11T13:25:41.063Z,0.63
2019-02-11T13:31:36.060Z,1
2019-02-11T13:37:31.061Z,0.63
2019-02-11T13:43:26.096Z,0.73
2019-02-11T13:49:21.097Z,0.41
2019-02-11T13:55:16.220Z,0.48
2019-02-11T14:01:11.118Z,0.44
2019-02-11T14:07:06.121Z,0.52
2019-02-11T14:13:01.104Z,0.5
2019-02-11T14:18:56.115Z,1.46
2019-02-11T14:24:51.116Z,0.81
2019-02-11T14:30:46.110Z,2.23
2019-02-11T14:36:43.213Z,2.09
2019-02-11T14:42:36.098Z,1.51
2019-02-11T14:48:31.126Z,2.39
2019-02-11T14:54:26.144Z,2.5
2019-02-11T15:00:21.110Z,0.5
2019-02-11T15:06:16.134Z,1.94
2019-02-11T15:12:11.158Z,6.55
2019-02-11T15:18:06.124Z,6.86
2019-02-11T15:24:01.135Z,4.14
2019-02-11T15:29:56.205Z,0.65
2019-02-11T15:35:51.144Z,4.68
2019-02-11T15:41:46.146Z,2.37
2019-02-11T15:47:41.141Z,0.61
2019-02-11T15:53:36.163Z,1.7
2019-02-11T15:59:31.180Z,1.75
2019-02-11T16:05:26.186Z,0.57
2019-02-11T16:11:21.158Z,0.69
2019-02-11T16:17:16.187Z,1.65
2019-02-11T16:23:11.174Z,0.69
2019-02-11T16:29:06.191Z,4.25
2019-02-11T16:35:01.185Z,4.6
2019-02-11T16:40:56.162Z,9.68
2019-02-11T16:46:51.282Z,18.95
2019-02-11T16:52:46.190Z,9.9
2019-02-11T16:58:41.192Z,12.11
2019-02-11T17:04:36.204Z,6.4
2019-02-11T17:10:31.204Z,10.87
2019-02-11T17:16:26.215Z,5.03
2019-02-11T17:22:21.192Z,12.97
2019-02-11T17:28:16.209Z,4.2
2019-02-11T17:34:11.201Z,4.93
2019-02-11T17:40:06.233Z,6.81
2019-02-11T17:46:01.223Z,4.65
2019-02-11T17:51:56.264Z,6.09
2019-02-11T17:57:51.237Z,6.71
2019-02-11T18:03:46.212Z,6.74
2019-02-11T18:09:41.237Z,2.4
2019-02-11T18:15:36.283Z,6
2019-02-11T18:21:32.774Z,4.24
2019-02-11T18:27:26.270Z,8.79
2019-02-11T18:33:21.264Z,16.43
2019-02-11T18:39:16.307Z,16.37
2019-02-11T18:45:11.297Z,16.18
2019-02-11T18:51:06.293Z,9.4
2019-02-11T18:57:01.272Z,6
2019-02-11T19:02:56.366Z,9.95
2019-02-11T19:08:51.265Z,15.54
2019-02-11T19:14:46.289Z,9.65
2019-02-11T19:20:41.281Z,24.79
2019-02-11T19:26:36.270Z,21.64
2019-02-11T19:32:31.325Z,14.35
2019-02-11T19:38:26.307Z,19.61
2019-02-11T19:44:21.282Z,33.68
2019-02-11T19:50:16.363Z,25.37
2019-02-11T19:56:11.313Z,24.26
2019-02-11T20:02:06.335Z,23.36
2019-02-11T20:08:01.335Z,21.22
2019-02-11T20:13:56.285Z,16
2019-02-11T20:19:51.320Z,24
2019-02-11T20:25:46.304Z,23.76
2019-02-11T20:31:41.344Z,24.85
2019-02-11T20:37:36.327Z,9.93
2019-02-11T20:43:31.349Z,13.71
2019-02-11T20:49:26.326Z,17.64
2019-02-11T20:55:21.386Z,16.26
2019-02-11T21:01:16.387Z,18.34
2019-02-11T21:07:11.349Z,20.99
2019-02-11T21:13:06.365Z,26.54
2019-02-11T21:19:01.368Z,28.65
2019-02-11T21:24:56.351Z,28.09
2019-02-11T21:30:51.354Z,36.35
2019-02-11T21:36:46.363Z,28.32
2019-02-11T21:42:41.374Z,31.38
2019-02-11T21:48:36.411Z,35.68
2019-02-11T21:54:31.368Z,32.38
2019-02-11T22:00:26.438Z,26.43
2019-02-11T22:06:21.375Z,23.19
2019-02-11T22:12:16.404Z,22.69
2019-02-11T22:18:11.405Z,20.87
2019-02-11T22:24:06.392Z,18.38
2019-02-11T22:30:01.422Z,20.77
2019-02-11T22:35:56.429Z,16.81
2019-02-11T22:41:51.428Z,23.57
2019-02-11T22:47:46.412Z,20.44
2019-02-11T22:53:41.398Z,20.64
2019-02-11T22:59:36.461Z,22.71
2019-02-11T23:05:31.405Z,25.98
2019-02-11T23:11:26.466Z,23.73
2019-02-11T23:17:21.397Z,20.39
2019-02-11T23:23:16.434Z,24.57
2019-02-11T23:29:11.416Z,15.13
2019-02-11T23:35:06.525Z,21.24
2019-02-11T23:41:01.432Z,14.41
2019-02-11T23:46:56.429Z,14.46
2019-02-11T23:52:51.460Z,12.38
2019-02-11T23:58:46.471Z,12.89
